sensor_id;sensor_type;location;lat;lon;timestamp;temperature;humidity
15947;DHT22;8072;52.554;7.966;2022-07-21T00:01:09;22.30;99.90
15947;DHT22;8072;52.554;7.966;2022-07-21T00:03:35;22.10;99.90
15947;DHT22;8072;52.554;7.966;2022-07-21T00:06:02;21.90;99.90
15947;DHT22;8072;52.554;7.966;2022-07-21T00:08:27;21.80;99.90
15947;DHT22;8072;52.554;7.966;2022-07-21T00:10:53;21.70;99.90
15947;DHT22;8072;52.554;7.966;2022-07-21T00:13:19;21.70;99.90
15947;DHT22;8072;52.554;7.966;2022-07-21T00:15:45;21.60;99.90
15947;DHT22;8072;52.554;7.966;2022-07-21T00:18:12;21.60;99.90
15947;DHT22;8072;52.554;7.966;2022-07-21T00:20:38;21.60;99.90
15947;DHT22;8072;52.554;7.966;2022-07-21T00:23:03;21.50;99.90
15947;DHT22;8072;52.554;7.966;2022-07-21T00:25:29;21.40;99.90
15947;DHT22;8072;52.554;7.966;2022-07-21T00:27:55;21.30;99.90
15947;DHT22;8072;52.554;7.966;2022-07-21T00:30:21;21.20;99.90
15947;DHT22;8072;52.554;7.966;2022-07-21T00:32:47;21.20;99.90
15947;DHT22;8072;52.554;7.966;2022-07-21T00:35:13;21.20;99.90
15947;DHT22;8072;52.554;7.966;2022-07-21T00:37:40;21.20;99.90
15947;DHT22;8072;52.554;7.966;2022-07-21T00:40:07;21.20;99.90
15947;DHT22;8072;52.554;7.966;2022-07-21T00:42:34;21.30;99.90
15947;DHT22;8072;52.554;7.966;2022-07-21T00:45:01;21.30;99.90
15947;DHT22;8072;52.554;7.966;2022-07-21T00:47:29;21.30;99.90
15947;DHT22;8072;52.554;7.966;2022-07-21T00:49:57;21.30;99.90
15947;DHT22;8072;52.554;7.966;2022-07-21T00:52:24;21.20;99.90
15947;DHT22;8072;52.554;7.966;2022-07-21T00:54:50;21.20;99.90
15947;DHT22;8072;52.554;7.966;2022-07-21T00:57:16;21.10;99.90
15947;DHT22;8072;52.554;7.966;2022-07-21T00:59:42;20.90;99.90
15947;DHT22;8072;52.554;7.966;2022-07-21T01:02:09;20.70;99.90
15947;DHT22;8072;52.554;7.966;2022-07-21T01:04:36;20.60;99.90
15947;DHT22;8072;52.554;7.966;2022-07-21T01:07:03;20.50;99.90
15947;DHT22;8072;52.554;7.966;2022-07-21T01:09:30;20.50;99.90
15947;DHT22;8072;52.554;7.966;2022-07-21T01:11:57;20.50;99.90
15947;DHT22;8072;52.554;7.966;2022-07-21T01:14:24;20.50;99.90
15947;DHT22;8072;52.554;7.966;2022-07-21T01:16:50;20.50;99.90
15947;DHT22;8072;52.554;7.966;2022-07-21T01:19:16;20.60;99.90
15947;DHT22;8072;52.554;7.966;2022-07-21T01:21:44;20.70;99.90
15947;DHT22;8072;52.554;7.966;2022-07-21T01:24:11;20.70;99.90
15947;DHT22;8072;52.554;7.966;2022-07-21T01:26:42;20.80;99.90
15947;DHT22;8072;52.554;7.966;2022-07-21T01:29:09;20.80;99.90
15947;DHT22;8072;52.554;7.966;2022-07-21T01:31:36;20.80;99.90
15947;DHT22;8072;52.554;7.966;2022-07-21T01:34:02;20.80;99.90
15947;DHT22;8072;52.554;7.966;2022-07-21T01:36:28;20.80;99.90
15947;DHT22;8072;52.554;7.966;2022-07-21T01:38:54;20.80;99.90
15947;DHT22;8072;52.554;7.966;2022-07-21T01:41:38;20.80;99.90
15947;DHT22;8072;52.554;7.966;2022-07-21T01:44:08;20.80;99.90
15947;DHT22;8072;52.554;7.966;2022-07-21T01:46:39;20.80;99.90
15947;DHT22;8072;52.554;7.966;2022-07-21T01:49:06;20.90;99.90
15947;DHT22;8072;52.554;7.966;2022-07-21T01:51:33;20.90;99.90
15947;DHT22;8072;52.554;7.966;2022-07-21T01:53:59;20.90;99.90
15947;DHT22;8072;52.554;7.966;2022-07-21T01:56:26;20.90;99.90
15947;DHT22;8072;52.554;7.966;2022-07-21T01:58:56;20.80;99.90
15947;DHT22;8072;52.554;7.966;2022-07-21T02:01:24;20.80;99.90
15947;DHT22;8072;52.554;7.966;2022-07-21T02:03:53;20.80;99.90
15947;DHT22;8072;52.554;7.966;2022-07-21T02:06:20;20.80;99.90
15947;DHT22;8072;52.554;7.966;2022-07-21T02:08:46;20.90;99.90
15947;DHT22;8072;52.554;7.966;2022-07-21T02:11:12;20.80;99.90
15947;DHT22;8072;52.554;7.966;2022-07-21T02:13:39;20.80;99.90
15947;DHT22;8072;52.554;7.966;2022-07-21T02:16:05;20.80;99.90
15947;DHT22;8072;52.554;7.966;2022-07-21T02:18:31;20.70;99.90
15947;DHT22;8072;52.554;7.966;2022-07-21T02:20:57;20.70;99.90
15947;DHT22;8072;52.554;7.966;2022-07-21T02:23:24;20.70;99.90
15947;DHT22;8072;52.554;7.966;2022-07-21T02:25:51;20.70;99.90
15947;DHT22;8072;52.554;7.966;2022-07-21T02:28:21;20.70;99.90
15947;DHT22;8072;52.554;7.966;2022-07-21T02:30:47;20.70;99.90
15947;DHT22;8072;52.554;7.966;2022-07-21T02:33:13;20.70;99.90
15947;DHT22;8072;52.554;7.966;2022-07-21T02:35:40;20.70;99.90
15947;DHT22;8072;52.554;7.966;2022-07-21T02:38:06;20.70;99.90
15947;DHT22;8072;52.554;7.966;2022-07-21T02:40:32;20.60;99.90
15947;DHT22;8072;52.554;7.966;2022-07-21T02:42:58;20.50;99.90
15947;DHT22;8072;52.554;7.966;2022-07-21T02:45:24;20.50;99.90
15947;DHT22;8072;52.554;7.966;2022-07-21T02:48:00;20.40;99.90
15947;DHT22;8072;52.554;7.966;2022-07-21T02:50:28;20.40;99.90
15947;DHT22;8072;52.554;7.966;2022-07-21T02:52:59;20.40;99.90
15947;DHT22;8072;52.554;7.966;2022-07-21T02:55:26;20.50;99.90
15947;DHT22;8072;52.554;7.966;2022-07-21T02:58:11;20.40;99.90
15947;DHT22;8072;52.554;7.966;2022-07-21T03:00:43;20.30;99.90
15947;DHT22;8072;52.554;7.966;2022-07-21T03:03:09;20.20;99.90
15947;DHT22;8072;52.554;7.966;2022-07-21T03:05:36;20.10;99.90
15947;DHT22;8072;52.554;7.966;2022-07-21T03:08:04;20.10;99.90
15947;DHT22;8072;52.554;7.966;2022-07-21T03:10:30;20.10;99.90
15947;DHT22;8072;52.554;7.966;2022-07-21T03:12:56;20.00;99.90
15947;DHT22;8072;52.554;7.966;2022-07-21T03:15:22;20.00;99.90
15947;DHT22;8072;52.554;7.966;2022-07-21T03:17:47;20.00;99.90
15947;DHT22;8072;52.554;7.966;2022-07-21T03:20:13;20.10;99.90
15947;DHT22;8072;52.554;7.966;2022-07-21T03:22:39;20.10;99.90
15947;DHT22;8072;52.554;7.966;2022-07-21T03:25:05;20.20;99.90
15947;DHT22;8072;52.554;7.966;2022-07-21T03:27:32;20.10;99.90
15947;DHT22;8072;52.554;7.966;2022-07-21T03:30:06;20.10;99.90
15947;DHT22;8072;52.554;7.966;2022-07-21T03:32:32;20.00;99.90
15947;DHT22;8072;52.554;7.966;2022-07-21T03:34:58;20.10;99.90
15947;DHT22;8072;52.554;7.966;2022-07-21T03:37:25;20.10;99.90
15947;DHT22;8072;52.554;7.966;2022-07-21T03:39:51;20.10;99.90
15947;DHT22;8072;52.554;7.966;2022-07-21T03:42:17;20.20;99.90
15947;DHT22;8072;52.554;7.966;2022-07-21T03:44:44;20.20;99.90
15947;DHT22;8072;52.554;7.966;2022-07-21T03:47:09;20.10;99.90
15947;DHT22;8072;52.554;7.966;2022-07-21T03:49:36;20.10;99.90
15947;DHT22;8072;52.554;7.966;2022-07-21T03:52:02;20.00;99.90
15947;DHT22;8072;52.554;7.966;2022-07-21T03:54:28;20.00;99.90
15947;DHT22;8072;52.554;7.966;2022-07-21T03:56:53;20.00;99.90
15947;DHT22;8072;52.554;7.966;2022-07-21T03:59:19;20.00;99.90
15947;DHT22;8072;52.554;7.966;2022-07-21T04:01:45;20.00;99.90
15947;DHT22;8072;52.554;7.966;2022-07-21T04:04:11;20.00;99.90
15947;DHT22;8072;52.554;7.966;2022-07-21T04:06:36;20.10;99.90
15947;DHT22;8072;52.554;7.966;2022-07-21T04:09:03;20.20;99.90
15947;DHT22;8072;52.554;7.966;2022-07-21T04:11:29;20.20;99.90
15947;DHT22;8072;52.554;7.966;2022-07-21T04:13:56;20.10;99.90
15947;DHT22;8072;52.554;7.966;2022-07-21T04:16:22;20.20;99.90
15947;DHT22;8072;52.554;7.966;2022-07-21T04:18:48;20.20;99.90
15947;DHT22;8072;52.554;7.966;2022-07-21T04:21:13;20.10;99.90
15947;DHT22;8072;52.554;7.966;2022-07-21T04:23:39;20.10;99.90
15947;DHT22;8072;52.554;7.966;2022-07-21T04:26:05;20.00;99.90
15947;DHT22;8072;52.554;7.966;2022-07-21T04:28:31;20.00;99.90
15947;DHT22;8072;52.554;7.966;2022-07-21T04:30:57;20.00;99.90
15947;DHT22;8072;52.554;7.966;2022-07-21T04:33:22;20.00;99.90
15947;DHT22;8072;52.554;7.966;2022-07-21T04:35:49;19.90;99.90
15947;DHT22;8072;52.554;7.966;2022-07-21T04:38:15;19.80;99.90
15947;DHT22;8072;52.554;7.966;2022-07-21T04:40:41;19.70;99.90
15947;DHT22;8072;52.554;7.966;2022-07-21T04:43:07;19.70;99.90
15947;DHT22;8072;52.554;7.966;2022-07-21T04:45:32;19.50;99.90
15947;DHT22;8072;52.554;7.966;2022-07-21T04:47:58;19.40;99.90
15947;DHT22;8072;52.554;7.966;2022-07-21T04:50:26;19.30;99.90
15947;DHT22;8072;52.554;7.966;2022-07-21T04:52:53;19.20;99.90
15947;DHT22;8072;52.554;7.966;2022-07-21T04:55:20;19.00;99.90
15947;DHT22;8072;52.554;7.966;2022-07-21T04:57:48;19.00;99.90
15947;DHT22;8072;52.554;7.966;2022-07-21T05:00:17;18.90;99.90
15947;DHT22;8072;52.554;7.966;2022-07-21T05:02:43;18.90;99.90
15947;DHT22;8072;52.554;7.966;2022-07-21T05:05:10;18.90;99.90
15947;DHT22;8072;52.554;7.966;2022-07-21T05:07:36;18.80;99.90
15947;DHT22;8072;52.554;7.966;2022-07-21T05:10:07;18.90;99.90
15947;DHT22;8072;52.554;7.966;2022-07-21T05:12:33;18.90;99.90
15947;DHT22;8072;52.554;7.966;2022-07-21T05:14:59;18.90;99.90
15947;DHT22;8072;52.554;7.966;2022-07-21T05:17:26;18.90;99.90
15947;DHT22;8072;52.554;7.966;2022-07-21T05:19:52;18.90;99.90
15947;DHT22;8072;52.554;7.966;2022-07-21T05:22:18;18.90;99.90
15947;DHT22;8072;52.554;7.966;2022-07-21T05:24:44;18.90;99.90
15947;DHT22;8072;52.554;7.966;2022-07-21T05:27:10;18.90;99.90
15947;DHT22;8072;52.554;7.966;2022-07-21T05:29:36;18.90;99.90
15947;DHT22;8072;52.554;7.966;2022-07-21T05:32:02;18.90;99.90
15947;DHT22;8072;52.554;7.966;2022-07-21T05:34:28;18.80;99.90
15947;DHT22;8072;52.554;7.966;2022-07-21T05:36:54;18.90;99.90
15947;DHT22;8072;52.554;7.966;2022-07-21T05:39:20;18.90;99.90
15947;DHT22;8072;52.554;7.966;2022-07-21T05:41:46;18.90;99.90
15947;DHT22;8072;52.554;7.966;2022-07-21T05:44:12;18.90;99.90
15947;DHT22;8072;52.554;7.966;2022-07-21T05:46:37;18.90;99.90
15947;DHT22;8072;52.554;7.966;2022-07-21T05:49:03;18.80;99.90
15947;DHT22;8072;52.554;7.966;2022-07-21T05:51:29;18.80;99.90
15947;DHT22;8072;52.554;7.966;2022-07-21T05:53:55;18.90;99.90
15947;DHT22;8072;52.554;7.966;2022-07-21T05:56:21;18.90;99.90
15947;DHT22;8072;52.554;7.966;2022-07-21T05:58:47;18.90;99.90
15947;DHT22;8072;52.554;7.966;2022-07-21T06:01:13;19.00;99.90
15947;DHT22;8072;52.554;7.966;2022-07-21T06:03:43;19.00;99.90
15947;DHT22;8072;52.554;7.966;2022-07-21T06:06:10;19.10;99.90
15947;DHT22;8072;52.554;7.966;2022-07-21T06:08:40;19.10;99.90
15947;DHT22;8072;52.554;7.966;2022-07-21T06:11:08;19.10;99.90
15947;DHT22;8072;52.554;7.966;2022-07-21T06:13:34;19.00;99.90
15947;DHT22;8072;52.554;7.966;2022-07-21T06:16:00;19.00;99.90
15947;DHT22;8072;52.554;7.966;2022-07-21T06:18:26;19.00;99.90
15947;DHT22;8072;52.554;7.966;2022-07-21T06:20:52;18.90;99.90
15947;DHT22;8072;52.554;7.966;2022-07-21T06:23:20;18.90;99.90
15947;DHT22;8072;52.554;7.966;2022-07-21T06:25:46;18.90;99.90
15947;DHT22;8072;52.554;7.966;2022-07-21T06:28:12;18.90;99.90
15947;DHT22;8072;52.554;7.966;2022-07-21T06:30:37;18.90;99.90
15947;DHT22;8072;52.554;7.966;2022-07-21T06:33:04;18.80;99.90
15947;DHT22;8072;52.554;7.966;2022-07-21T06:35:30;18.80;99.90
15947;DHT22;8072;52.554;7.966;2022-07-21T06:37:55;18.80;99.90
15947;DHT22;8072;52.554;7.966;2022-07-21T06:40:21;18.80;99.90
15947;DHT22;8072;52.554;7.966;2022-07-21T06:42:47;18.70;99.90
15947;DHT22;8072;52.554;7.966;2022-07-21T06:45:13;18.70;99.90
15947;DHT22;8072;52.554;7.966;2022-07-21T06:47:39;18.70;99.90
15947;DHT22;8072;52.554;7.966;2022-07-21T06:50:06;18.80;99.90
15947;DHT22;8072;52.554;7.966;2022-07-21T06:52:33;18.80;99.90
15947;DHT22;8072;52.554;7.966;2022-07-21T06:54:59;18.80;99.90
15947;DHT22;8072;52.554;7.966;2022-07-21T06:57:25;18.80;99.90
15947;DHT22;8072;52.554;7.966;2022-07-21T06:59:51;18.80;99.90
15947;DHT22;8072;52.554;7.966;2022-07-21T07:02:17;18.90;99.90
15947;DHT22;8072;52.554;7.966;2022-07-21T07:04:43;18.80;99.90
15947;DHT22;8072;52.554;7.966;2022-07-21T07:07:09;18.90;99.90
15947;DHT22;8072;52.554;7.966;2022-07-21T07:09:36;18.90;99.90
15947;DHT22;8072;52.554;7.966;2022-07-21T07:12:02;18.90;99.90
15947;DHT22;8072;52.554;7.966;2022-07-21T07:14:33;18.90;99.90
15947;DHT22;8072;52.554;7.966;2022-07-21T07:17:01;19.00;99.90
15947;DHT22;8072;52.554;7.966;2022-07-21T07:19:27;19.00;99.90
15947;DHT22;8072;52.554;7.966;2022-07-21T07:21:53;19.00;99.90
15947;DHT22;8072;52.554;7.966;2022-07-21T07:24:19;19.10;99.90
15947;DHT22;8072;52.554;7.966;2022-07-21T07:26:45;19.10;99.90
15947;DHT22;8072;52.554;7.966;2022-07-21T07:29:11;19.10;99.90
15947;DHT22;8072;52.554;7.966;2022-07-21T07:31:37;19.20;99.90
15947;DHT22;8072;52.554;7.966;2022-07-21T07:34:04;19.10;99.90
15947;DHT22;8072;52.554;7.966;2022-07-21T07:36:30;19.10;99.90
15947;DHT22;8072;52.554;7.966;2022-07-21T07:38:56;19.20;99.90
15947;DHT22;8072;52.554;7.966;2022-07-21T07:41:24;19.30;99.90
15947;DHT22;8072;52.554;7.966;2022-07-21T07:43:50;19.40;99.90
15947;DHT22;8072;52.554;7.966;2022-07-21T07:46:20;19.40;99.90
15947;DHT22;8072;52.554;7.966;2022-07-21T07:48:49;19.40;99.90
15947;DHT22;8072;52.554;7.966;2022-07-21T07:51:15;19.40;99.90
15947;DHT22;8072;52.554;7.966;2022-07-21T07:53:41;19.50;99.90
15947;DHT22;8072;52.554;7.966;2022-07-21T07:56:07;19.60;99.90
15947;DHT22;8072;52.554;7.966;2022-07-21T07:58:34;19.70;99.90
15947;DHT22;8072;52.554;7.966;2022-07-21T08:01:00;19.80;99.90
15947;DHT22;8072;52.554;7.966;2022-07-21T08:03:26;19.80;99.90
15947;DHT22;8072;52.554;7.966;2022-07-21T08:05:54;20.00;99.90
15947;DHT22;8072;52.554;7.966;2022-07-21T08:08:20;19.90;99.90
15947;DHT22;8072;52.554;7.966;2022-07-21T08:10:46;19.90;99.90
15947;DHT22;8072;52.554;7.966;2022-07-21T08:13:15;20.10;99.90
15947;DHT22;8072;52.554;7.966;2022-07-21T08:15:41;20.10;99.90
15947;DHT22;8072;52.554;7.966;2022-07-21T08:18:08;20.20;99.90
15947;DHT22;8072;52.554;7.966;2022-07-21T08:20:34;20.20;99.90
15947;DHT22;8072;52.554;7.966;2022-07-21T08:23:01;20.20;99.90
15947;DHT22;8072;52.554;7.966;2022-07-21T08:25:27;20.30;99.90
15947;DHT22;8072;52.554;7.966;2022-07-21T08:27:53;20.30;99.90
15947;DHT22;8072;52.554;7.966;2022-07-21T08:30:18;20.20;99.90
15947;DHT22;8072;52.554;7.966;2022-07-21T08:32:47;20.20;99.90
15947;DHT22;8072;52.554;7.966;2022-07-21T08:35:13;20.30;99.90
15947;DHT22;8072;52.554;7.966;2022-07-21T08:37:39;20.50;99.90
15947;DHT22;8072;52.554;7.966;2022-07-21T08:40:08;20.60;99.90
15947;DHT22;8072;52.554;7.966;2022-07-21T08:42:34;20.80;99.90
15947;DHT22;8072;52.554;7.966;2022-07-21T08:45:01;20.90;99.90
15947;DHT22;8072;52.554;7.966;2022-07-21T08:47:27;21.00;99.90
15947;DHT22;8072;52.554;7.966;2022-07-21T08:49:54;21.10;99.90
15947;DHT22;8072;52.554;7.966;2022-07-21T08:52:20;21.10;99.90
15947;DHT22;8072;52.554;7.966;2022-07-21T08:54:46;21.10;99.90
15947;DHT22;8072;52.554;7.966;2022-07-21T08:57:12;21.00;99.90
15947;DHT22;8072;52.554;7.966;2022-07-21T08:59:38;21.00;99.90
15947;DHT22;8072;52.554;7.966;2022-07-21T09:02:04;21.00;99.90
15947;DHT22;8072;52.554;7.966;2022-07-21T09:04:33;21.00;99.90
15947;DHT22;8072;52.554;7.966;2022-07-21T09:07:05;21.00;99.90
15947;DHT22;8072;52.554;7.966;2022-07-21T09:09:32;21.00;99.90
15947;DHT22;8072;52.554;7.966;2022-07-21T09:11:59;21.00;99.90
15947;DHT22;8072;52.554;7.966;2022-07-21T09:14:28;21.00;99.90
15947;DHT22;8072;52.554;7.966;2022-07-21T09:16:56;21.10;99.90
15947;DHT22;8072;52.554;7.966;2022-07-21T09:19:29;21.00;99.90
15947;DHT22;8072;52.554;7.966;2022-07-21T09:21:59;21.20;99.90
15947;DHT22;8072;52.554;7.966;2022-07-21T09:24:31;21.20;99.90
15947;DHT22;8072;52.554;7.966;2022-07-21T09:27:16;21.20;99.90
15947;DHT22;8072;52.554;7.966;2022-07-21T09:32:30;21.10;99.90
15947;DHT22;8072;52.554;7.966;2022-07-21T09:35:06;21.10;99.90
15947;DHT22;8072;52.554;7.966;2022-07-21T09:37:33;21.10;99.90
15947;DHT22;8072;52.554;7.966;2022-07-21T09:40:05;21.10;99.90
15947;DHT22;8072;52.554;7.966;2022-07-21T09:42:38;21.10;99.90
15947;DHT22;8072;52.554;7.966;2022-07-21T09:45:07;21.10;99.90
15947;DHT22;8072;52.554;7.966;2022-07-21T09:47:34;21.20;99.90
15947;DHT22;8072;52.554;7.966;2022-07-21T09:50:01;21.20;99.90
15947;DHT22;8072;52.554;7.966;2022-07-21T09:54:58;21.30;99.90
15947;DHT22;8072;52.554;7.966;2022-07-21T09:57:24;21.50;99.90
15947;DHT22;8072;52.554;7.966;2022-07-21T09:59:50;21.60;99.90
15947;DHT22;8072;52.554;7.966;2022-07-21T10:02:28;21.70;99.90
15947;DHT22;8072;52.554;7.966;2022-07-21T10:05:05;21.80;99.90
15947;DHT22;8072;52.554;7.966;2022-07-21T10:07:32;21.80;99.90
15947;DHT22;8072;52.554;7.966;2022-07-21T10:09:58;21.70;99.90
15947;DHT22;8072;52.554;7.966;2022-07-21T10:12:25;21.70;99.90
15947;DHT22;8072;52.554;7.966;2022-07-21T10:14:51;21.70;99.90
15947;DHT22;8072;52.554;7.966;2022-07-21T10:17:19;21.70;99.90
15947;DHT22;8072;52.554;7.966;2022-07-21T10:24:52;21.90;99.90
15947;DHT22;8072;52.554;7.966;2022-07-21T10:27:18;21.90;99.90
15947;DHT22;8072;52.554;7.966;2022-07-21T10:29:50;21.90;99.90
15947;DHT22;8072;52.554;7.966;2022-07-21T10:32:28;21.90;99.90
15947;DHT22;8072;52.554;7.966;2022-07-21T10:34:54;21.80;99.90
15947;DHT22;8072;52.554;7.966;2022-07-21T10:45:41;21.70;99.90
15947;DHT22;8072;52.554;7.966;2022-07-21T10:51:09;22.00;99.90
15947;DHT22;8072;52.554;7.966;2022-07-21T10:53:36;22.10;99.90
15947;DHT22;8072;52.554;7.966;2022-07-21T10:56:02;22.30;99.90
15947;DHT22;8072;52.554;7.966;2022-07-21T10:58:30;22.40;99.90
15947;DHT22;8072;52.554;7.966;2022-07-21T11:03:35;22.70;99.90
15947;DHT22;8072;52.554;7.966;2022-07-21T11:08:44;22.40;99.90
15947;DHT22;8072;52.554;7.966;2022-07-21T11:11:19;22.40;99.90
15947;DHT22;8072;52.554;7.966;2022-07-21T11:22:06;22.10;99.90
15947;DHT22;8072;52.554;7.966;2022-07-21T11:24:32;22.00;99.90
15947;DHT22;8072;52.554;7.966;2022-07-21T11:27:00;21.90;99.90
15947;DHT22;8072;52.554;7.966;2022-07-21T11:29:26;21.80;99.90
15947;DHT22;8072;52.554;7.966;2022-07-21T11:31:52;21.80;99.90
15947;DHT22;8072;52.554;7.966;2022-07-21T11:34:18;21.70;99.90
15947;DHT22;8072;52.554;7.966;2022-07-21T11:36:44;21.40;99.90
15947;DHT22;8072;52.554;7.966;2022-07-21T11:39:15;21.30;99.90
15947;DHT22;8072;52.554;7.966;2022-07-21T11:41:42;21.20;99.90
15947;DHT22;8072;52.554;7.966;2022-07-21T11:44:10;21.10;99.90
15947;DHT22;8072;52.554;7.966;2022-07-21T11:46:56;21.00;99.90
15947;DHT22;8072;52.554;7.966;2022-07-21T11:49:23;21.00;99.90
15947;DHT22;8072;52.554;7.966;2022-07-21T11:52:06;20.90;99.90
15947;DHT22;8072;52.554;7.966;2022-07-21T11:54:46;20.80;99.90
15947;DHT22;8072;52.554;7.966;2022-07-21T11:57:14;20.80;99.90
15947;DHT22;8072;52.554;7.966;2022-07-21T11:59:41;20.70;99.90
15947;DHT22;8072;52.554;7.966;2022-07-21T12:02:21;20.60;99.90
15947;DHT22;8072;52.554;7.966;2022-07-21T12:09:48;20.60;99.90
15947;DHT22;8072;52.554;7.966;2022-07-21T12:12:14;20.60;99.90
15947;DHT22;8072;52.554;7.966;2022-07-21T12:17:09;20.60;99.90
15947;DHT22;8072;52.554;7.966;2022-07-21T12:19:36;20.60;99.90
15947;DHT22;8072;52.554;7.966;2022-07-21T12:22:02;20.70;99.90
15947;DHT22;8072;52.554;7.966;2022-07-21T12:24:47;20.80;99.90
15947;DHT22;8072;52.554;7.966;2022-07-21T12:27:13;21.10;99.90
15947;DHT22;8072;52.554;7.966;2022-07-21T12:29:39;21.30;99.90
15947;DHT22;8072;52.554;7.966;2022-07-21T12:32:05;21.60;99.90
15947;DHT22;8072;52.554;7.966;2022-07-21T12:34:31;21.80;99.90
15947;DHT22;8072;52.554;7.966;2022-07-21T12:36:57;22.10;99.90
15947;DHT22;8072;52.554;7.966;2022-07-21T12:39:25;22.40;99.90
15947;DHT22;8072;52.554;7.966;2022-07-21T12:42:31;22.70;99.90
15947;DHT22;8072;52.554;7.966;2022-07-21T12:44:58;22.70;99.90
15947;DHT22;8072;52.554;7.966;2022-07-21T12:47:24;22.50;99.90
15947;DHT22;8072;52.554;7.966;2022-07-21T12:50:07;22.50;99.90
15947;DHT22;8072;52.554;7.966;2022-07-21T12:52:34;22.40;99.90
15947;DHT22;8072;52.554;7.966;2022-07-21T12:55:00;22.40;99.90
15947;DHT22;8072;52.554;7.966;2022-07-21T12:57:31;22.30;99.90
15947;DHT22;8072;52.554;7.966;2022-07-21T13:00:01;22.30;99.90
15947;DHT22;8072;52.554;7.966;2022-07-21T13:02:28;22.50;99.90
15947;DHT22;8072;52.554;7.966;2022-07-21T13:04:57;22.60;99.90
15947;DHT22;8072;52.554;7.966;2022-07-21T13:07:22;22.70;99.90
15947;DHT22;8072;52.554;7.966;2022-07-21T13:09:48;22.80;99.90
15947;DHT22;8072;52.554;7.966;2022-07-21T13:12:14;22.90;99.90
15947;DHT22;8072;52.554;7.966;2022-07-21T13:14:40;23.10;99.90
15947;DHT22;8072;52.554;7.966;2022-07-21T13:17:07;23.40;99.90
15947;DHT22;8072;52.554;7.966;2022-07-21T13:19:34;23.80;99.90
15947;DHT22;8072;52.554;7.966;2022-07-21T13:22:02;23.90;99.90
15947;DHT22;8072;52.554;7.966;2022-07-21T13:24:28;24.00;99.90
15947;DHT22;8072;52.554;7.966;2022-07-21T13:26:54;24.20;99.90
15947;DHT22;8072;52.554;7.966;2022-07-21T13:29:20;24.40;99.90
15947;DHT22;8072;52.554;7.966;2022-07-21T13:31:46;24.50;99.90
15947;DHT22;8072;52.554;7.966;2022-07-21T13:34:12;24.60;99.90
15947;DHT22;8072;52.554;7.966;2022-07-21T13:36:38;24.70;99.90
15947;DHT22;8072;52.554;7.966;2022-07-21T13:39:05;24.90;99.90
15947;DHT22;8072;52.554;7.966;2022-07-21T13:41:32;24.80;99.90
15947;DHT22;8072;52.554;7.966;2022-07-21T13:43:58;24.90;99.90
15947;DHT22;8072;52.554;7.966;2022-07-21T13:46:25;24.70;99.90
15947;DHT22;8072;52.554;7.966;2022-07-21T13:48:51;24.70;99.90
15947;DHT22;8072;52.554;7.966;2022-07-21T13:51:18;24.60;99.90
15947;DHT22;8072;52.554;7.966;2022-07-21T13:53:46;24.60;99.90
15947;DHT22;8072;52.554;7.966;2022-07-21T13:56:12;24.50;99.90
15947;DHT22;8072;52.554;7.966;2022-07-21T13:58:39;24.30;99.90
15947;DHT22;8072;52.554;7.966;2022-07-21T14:01:05;24.20;99.90
15947;DHT22;8072;52.554;7.966;2022-07-21T14:03:33;24.00;99.90
15947;DHT22;8072;52.554;7.966;2022-07-21T14:06:00;23.90;99.90
15947;DHT22;8072;52.554;7.966;2022-07-21T14:08:26;23.70;99.90
15947;DHT22;8072;52.554;7.966;2022-07-21T14:10:52;23.50;99.90
15947;DHT22;8072;52.554;7.966;2022-07-21T14:13:18;23.40;99.90
15947;DHT22;8072;52.554;7.966;2022-07-21T14:15:44;23.30;99.90
15947;DHT22;8072;52.554;7.966;2022-07-21T14:18:10;23.20;99.90
15947;DHT22;8072;52.554;7.966;2022-07-21T14:20:36;23.20;99.90
15947;DHT22;8072;52.554;7.966;2022-07-21T14:23:02;23.20;99.90
15947;DHT22;8072;52.554;7.966;2022-07-21T14:25:28;23.20;99.90
15947;DHT22;8072;52.554;7.966;2022-07-21T14:27:55;23.10;99.90
15947;DHT22;8072;52.554;7.966;2022-07-21T14:30:23;23.00;99.90
15947;DHT22;8072;52.554;7.966;2022-07-21T14:32:49;22.90;99.90
15947;DHT22;8072;52.554;7.966;2022-07-21T14:35:16;22.90;99.90
15947;DHT22;8072;52.554;7.966;2022-07-21T14:37:45;22.80;99.90
15947;DHT22;8072;52.554;7.966;2022-07-21T14:40:12;22.70;99.90
15947;DHT22;8072;52.554;7.966;2022-07-21T14:42:38;22.70;99.90
15947;DHT22;8072;52.554;7.966;2022-07-21T14:45:06;22.80;99.90
15947;DHT22;8072;52.554;7.966;2022-07-21T14:47:32;22.70;99.90
15947;DHT22;8072;52.554;7.966;2022-07-21T14:49:58;22.80;99.90
15947;DHT22;8072;52.554;7.966;2022-07-21T14:52:25;22.90;99.90
15947;DHT22;8072;52.554;7.966;2022-07-21T14:54:51;23.10;99.90
15947;DHT22;8072;52.554;7.966;2022-07-21T14:57:16;23.40;99.90
15947;DHT22;8072;52.554;7.966;2022-07-21T14:59:42;23.60;99.90
15947;DHT22;8072;52.554;7.966;2022-07-21T15:02:08;23.70;99.90
15947;DHT22;8072;52.554;7.966;2022-07-21T15:04:34;23.60;99.90
15947;DHT22;8072;52.554;7.966;2022-07-21T15:07:00;23.60;99.90
15947;DHT22;8072;52.554;7.966;2022-07-21T15:09:25;23.40;99.90
15947;DHT22;8072;52.554;7.966;2022-07-21T15:11:51;23.20;99.90
15947;DHT22;8072;52.554;7.966;2022-07-21T15:14:17;23.10;99.90
15947;DHT22;8072;52.554;7.966;2022-07-21T15:16:43;22.90;99.90
15947;DHT22;8072;52.554;7.966;2022-07-21T15:19:09;22.80;99.90
15947;DHT22;8072;52.554;7.966;2022-07-21T15:21:36;22.60;99.90
15947;DHT22;8072;52.554;7.966;2022-07-21T15:24:02;22.60;99.90
15947;DHT22;8072;52.554;7.966;2022-07-21T15:26:28;22.60;99.90
15947;DHT22;8072;52.554;7.966;2022-07-21T15:28:53;22.60;99.90
15947;DHT22;8072;52.554;7.966;2022-07-21T15:31:19;22.60;99.90
15947;DHT22;8072;52.554;7.966;2022-07-21T15:33:45;22.60;99.90
15947;DHT22;8072;52.554;7.966;2022-07-21T15:36:11;22.60;99.90
15947;DHT22;8072;52.554;7.966;2022-07-21T15:38:36;22.70;99.90
15947;DHT22;8072;52.554;7.966;2022-07-21T15:41:03;22.70;99.90
15947;DHT22;8072;52.554;7.966;2022-07-21T15:43:29;22.80;99.90
15947;DHT22;8072;52.554;7.966;2022-07-21T15:45:54;22.70;99.90
15947;DHT22;8072;52.554;7.966;2022-07-21T15:48:20;22.70;99.90
15947;DHT22;8072;52.554;7.966;2022-07-21T15:50:46;22.60;99.90
15947;DHT22;8072;52.554;7.966;2022-07-21T15:53:12;22.70;99.90
15947;DHT22;8072;52.554;7.966;2022-07-21T15:55:38;22.70;99.90
15947;DHT22;8072;52.554;7.966;2022-07-21T15:58:04;22.70;99.90
15947;DHT22;8072;52.554;7.966;2022-07-21T16:00:30;22.70;99.90
15947;DHT22;8072;52.554;7.966;2022-07-21T16:02:57;22.80;99.90
15947;DHT22;8072;52.554;7.966;2022-07-21T16:05:24;22.80;99.90
15947;DHT22;8072;52.554;7.966;2022-07-21T16:07:52;23.00;99.90
15947;DHT22;8072;52.554;7.966;2022-07-21T16:10:20;23.00;99.90
15947;DHT22;8072;52.554;7.966;2022-07-21T16:12:48;23.00;99.90
15947;DHT22;8072;52.554;7.966;2022-07-21T16:15:17;23.10;99.90
15947;DHT22;8072;52.554;7.966;2022-07-21T16:17:43;23.10;99.90
15947;DHT22;8072;52.554;7.966;2022-07-21T16:20:10;23.20;99.90
15947;DHT22;8072;52.554;7.966;2022-07-21T16:22:36;23.20;99.90
15947;DHT22;8072;52.554;7.966;2022-07-21T16:25:03;23.30;99.90
15947;DHT22;8072;52.554;7.966;2022-07-21T16:27:29;23.20;99.90